Time;durP1;ratioP1;P1;durP2;ratioP2;P2;SDS_P1;SDS_P2;PMS_P1;PMS_P2;Temp;Humidity;BMP_temperature;BMP_pressure;BME280_temperature;BME280_humidity;BME280_pressure;Samples;Min_cycle;Max_cycle;Signal;HPM_P1;HPM_P2
2022/01/17 00:02:05;;;;;;;3.17;2.87;;;4.30;99.90;;;;;;5030886;28;20166;-75
2022/01/17 00:04:31;;;;;;;4.40;4.13;;;4.30;99.90;;;;;;5013607;28;20190;-75
2022/01/17 00:06:56;;;;;;;5.17;4.77;;;4.30;99.90;;;;;;5031164;28;20193;-75
2022/01/17 00:09:22;;;;;;;4.63;3.27;;;4.30;99.90;;;;;;5030789;28;20572;-75
2022/01/17 00:11:49;;;;;;;8.33;4.23;;;4.30;99.90;;;;;;5030812;28;20181;-75
2022/01/17 00:14:18;;;;;;;6.20;3.30;;;4.20;99.90;;;;;;5013375;28;20205;-75
2022/01/17 00:16:53;;;;;;;2.30;2.03;;;4.20;99.90;;;;;;5031060;28;20220;-75
2022/01/17 00:21:47;;;;;;;3.93;2.13;;;4.10;99.90;;;;;;5030807;28;20186;-75
2022/01/17 00:24:13;;;;;;;4.40;3.13;;;4.10;99.90;;;;;;5013346;28;20726;-75
2022/01/17 00:26:39;;;;;;;5.53;4.37;;;4.10;99.90;;;;;;5013086;28;20201;-74
2022/01/17 00:29:05;;;;;;;6.97;5.00;;;4.10;99.90;;;;;;5031091;28;20255;-75
2022/01/17 00:31:30;;;;;;;3.27;2.97;;;4.10;99.90;;;;;;5030617;28;20231;-76
2022/01/17 00:33:56;;;;;;;3.33;3.13;;;4.10;99.90;;;;;;5013207;28;20188;-75
2022/01/17 00:36:21;;;;;;;3.50;3.20;;;4.10;99.90;;;;;;5030930;28;20178;-74
2022/01/17 00:38:47;;;;;;;1.37;1.33;;;4.10;99.90;;;;;;5031019;28;20185;-75
2022/01/17 00:41:12;;;;;;;2.13;1.93;;;4.10;99.90;;;;;;5013016;28;20198;-75
2022/01/17 00:43:38;;;;;;;2.57;2.40;;;4.10;99.90;;;;;;5012867;28;20174;-75
2022/01/17 00:46:03;;;;;;;2.33;2.13;;;4.10;99.90;;;;;;5030772;28;20553;-76
2022/01/17 00:48:29;;;;;;;8.23;5.97;;;4.10;99.90;;;;;;5030825;28;20205;-76
2022/01/17 00:50:55;;;;;;;8.07;4.20;;;4.20;99.90;;;;;;5044122;28;20186;-75
2022/01/17 00:53:20;;;;;;;4.03;3.70;;;4.20;99.90;;;;;;5030512;28;20556;-76
2022/01/17 00:55:46;;;;;;;5.53;5.17;;;4.20;99.90;;;;;;5013223;28;20271;-75
2022/01/17 00:58:11;;;;;;;10.80;8.07;;;4.20;99.90;;;;;;5038716;28;20340;-75
2022/01/17 01:00:37;;;;;;;4.23;2.73;;;4.30;99.90;;;;;;5030736;28;20220;-74
2022/01/17 01:03:04;;;;;;;4.17;3.97;;;4.30;99.90;;;;;;5030376;28;20643;-74
2022/01/17 01:05:29;;;;;;;13.37;4.17;;;4.30;99.90;;;;;;5012863;28;20182;-75
2022/01/17 01:07:55;;;;;;;4.73;4.43;;;4.30;99.90;;;;;;5030058;28;20190;-74
2022/01/17 01:10:21;;;;;;;10.47;6.23;;;4.30;99.90;;;;;;5030584;28;20556;-75
2022/01/17 01:12:48;;;;;;;7.33;4.93;;;4.30;99.90;;;;;;5030316;28;20193;-75
2022/01/17 01:15:20;;;;;;;5.03;4.73;;;4.40;99.90;;;;;;5030707;28;20205;-74
2022/01/17 01:17:48;;;;;;;2.47;2.37;;;4.40;99.90;;;;;;5094949;23;20228;-75
2022/01/17 01:20:36;;;;;;;6.50;6.03;;;4.30;99.90;;;;;;5049674;28;20208;-74
2022/01/17 01:28:31;;;;;;;9.47;7.10;;;4.40;99.90;;;;;;5056588;28;20208;-74
2022/01/17 01:30:58;;;;;;;6.43;4.93;;;4.50;99.90;;;;;;5070129;28;20172;-74
2022/01/17 01:33:29;;;;;;;7.13;6.27;;;4.50;99.90;;;;;;5050920;28;20195;-74
2022/01/17 01:36:10;;;;;;;11.93;7.50;;;4.50;99.90;;;;;;5038630;28;20239;-73
2022/01/17 01:38:38;;;;;;;4.87;4.40;;;4.50;99.90;;;;;;5056596;28;20193;-72
2022/01/17 01:41:04;;;;;;;4.23;3.87;;;4.60;99.90;;;;;;5072728;28;20230;-72
2022/01/17 01:43:30;;;;;;;5.23;4.77;;;4.60;99.90;;;;;;5076260;28;20645;-73
2022/01/17 01:45:59;;;;;;;3.50;2.40;;;4.60;99.90;;;;;;5075892;28;20233;-72
2022/01/17 01:48:26;;;;;;;3.37;3.17;;;4.60;99.90;;;;;;5057812;28;20211;-73
2022/01/17 01:50:51;;;;;;;5.27;3.93;;;4.50;99.90;;;;;;5069878;28;20212;-73
2022/01/17 01:53:17;;;;;;;5.67;5.20;;;4.60;99.90;;;;;;5055544;28;20189;-74
2022/01/17 01:55:44;;;;;;;7.40;5.10;;;4.50;99.90;;;;;;5055972;28;20527;-72
2022/01/17 01:58:09;;;;;;;8.57;4.63;;;4.60;99.90;;;;;;5057963;28;20548;-73
2022/01/17 02:00:35;;;;;;;2.53;2.33;;;4.60;99.90;;;;;;5057168;28;20204;-72
2022/01/17 02:03:01;;;;;;;8.03;5.33;;;4.60;99.90;;;;;;5056326;28;20285;-72
2022/01/17 02:05:26;;;;;;;22.03;7.47;;;4.60;99.90;;;;;;5056196;28;20699;-73
2022/01/17 02:07:52;;;;;;;5.67;5.27;;;4.60;99.90;;;;;;5054260;28;20216;-73
2022/01/17 02:10:18;;;;;;;8.43;4.83;;;4.60;99.90;;;;;;5054467;28;20187;-72
2022/01/17 02:12:44;;;;;;;11.33;7.07;;;4.60;99.90;;;;;;5045212;28;20272;-73
2022/01/17 02:15:17;;;;;;;2.03;1.97;;;4.60;99.90;;;;;;5054454;28;20652;-72
2022/01/17 02:17:46;;;;;;;5.23;4.17;;;4.60;99.90;;;;;;5064166;28;20224;-72
2022/01/17 02:20:17;;;;;;;5.40;4.97;;;4.60;99.90;;;;;;5074145;28;20196;-73
2022/01/17 02:22:43;;;;;;;9.47;7.03;;;4.60;99.90;;;;;;5052469;28;20200;-74
2022/01/17 02:25:09;;;;;;;4.90;3.27;;;4.60;99.90;;;;;;5052610;28;20208;-73
2022/01/17 02:27:35;;;;;;;4.47;4.17;;;4.60;99.90;;;;;;5067176;28;20623;-72
2022/01/17 02:30:01;;;;;;;4.10;3.90;;;4.70;99.90;;;;;;5073850;28;20191;-73
2022/01/17 02:32:26;;;;;;;7.67;2.27;;;4.70;99.90;;;;;;5052277;28;20189;-72
2022/01/17 02:35:10;;;;;;;11.67;8.00;;;4.70;99.90;;;;;;5072806;28;20184;-72
2022/01/17 02:37:36;;;;;;;9.50;8.80;;;4.70;99.90;;;;;;5072974;28;20204;-72
2022/01/17 02:40:02;;;;;;;4.23;3.93;;;4.70;99.90;;;;;;5073054;28;20333;-72
2022/01/17 02:42:28;;;;;;;2.17;1.50;;;4.70;99.90;;;;;;5072750;28;20173;-72
2022/01/17 02:44:59;;;;;;;7.17;4.50;;;4.70;99.90;;;;;;5051698;28;20192;-72
2022/01/17 02:47:25;;;;;;;9.07;4.83;;;4.80;99.90;;;;;;5068598;28;20204;-72
2022/01/17 02:49:50;;;;;;;9.83;5.20;;;4.80;99.90;;;;;;5072891;28;20181;-72
2022/01/17 02:52:19;;;;;;;4.73;4.37;;;4.80;99.90;;;;;;5072662;28;20180;-72
2022/01/17 02:54:45;;;;;;;4.93;4.63;;;4.80;99.90;;;;;;5072663;28;20180;-72
2022/01/17 02:57:11;;;;;;;4.97;3.70;;;4.80;99.90;;;;;;5072890;28;20200;-73
2022/01/17 02:59:36;;;;;;;11.13;5.37;;;4.80;99.90;;;;;;5072789;28;20202;-72
2022/01/17 03:02:03;;;;;;;4.63;4.33;;;4.80;99.90;;;;;;5072203;28;20181;-72
2022/01/17 03:04:29;;;;;;;2.83;2.73;;;4.80;99.90;;;;;;5051373;28;20188;-73
2022/01/17 03:06:55;;;;;;;3.63;3.40;;;4.80;99.90;;;;;;5070666;28;20168;-72
2022/01/17 03:09:21;;;;;;;7.53;6.73;;;4.80;99.90;;;;;;5074363;28;20267;-72
2022/01/17 03:11:47;;;;;;;7.97;6.40;;;4.90;99.90;;;;;;5072485;28;20580;-72
2022/01/17 03:14:13;;;;;;;6.30;5.97;;;4.90;99.90;;;;;;5072713;28;20219;-73
2022/01/17 03:16:45;;;;;;;5.07;4.60;;;4.90;99.90;;;;;;5072761;28;20172;-72
2022/01/17 03:19:10;;;;;;;5.57;5.17;;;4.90;99.90;;;;;;5072599;28;20176;-72
2022/01/17 03:21:36;;;;;;;9.80;6.13;;;4.90;99.90;;;;;;5051291;28;20684;-72
2022/01/17 03:24:03;;;;;;;6.50;5.93;;;4.90;99.90;;;;;;5063414;28;20180;-72
2022/01/17 03:26:30;;;;;;;4.33;3.93;;;4.90;99.90;;;;;;5072394;28;20179;-72
2022/01/17 03:29:00;;;;;;;13.03;6.13;;;4.90;99.90;;;;;;5071926;28;20208;-72
2022/01/17 03:31:27;;;;;;;6.50;4.40;;;4.90;99.90;;;;;;5072203;28;20188;-72
2022/01/17 03:33:52;;;;;;;9.63;7.40;;;4.90;99.90;;;;;;5072806;28;20321;-72
2022/01/17 03:36:18;;;;;;;9.13;3.93;;;4.90;99.90;;;;;;5073519;28;20208;-73
2022/01/17 03:38:44;;;;;;;5.10;4.73;;;4.90;99.90;;;;;;5089981;28;20200;-73
2022/01/17 03:41:12;;;;;;;5.40;4.97;;;4.90;99.90;;;;;;5076855;28;20219;-72
2022/01/17 03:43:38;;;;;;;7.93;6.13;;;4.90;99.90;;;;;;5071353;28;20261;-72
2022/01/17 03:46:04;;;;;;;6.47;5.83;;;4.90;99.90;;;;;;5054555;28;20643;-73
2022/01/17 03:48:31;;;;;;;8.13;5.87;;;4.90;99.90;;;;;;5072127;28;20283;-73
2022/01/17 03:50:58;;;;;;;14.40;7.60;;;4.90;99.90;;;;;;5067214;28;20275;-74
2022/01/17 03:53:25;;;;;;;12.23;5.47;;;4.90;99.90;;;;;;5071581;28;20184;-72
2022/01/17 03:55:51;;;;;;;5.10;4.60;;;4.90;99.90;;;;;;5071858;28;20198;-72
2022/01/17 03:58:18;;;;;;;8.33;6.23;;;4.90;99.90;;;;;;5071652;28;20196;-72
2022/01/17 04:00:49;;;;;;;9.50;8.17;;;4.90;99.90;;;;;;5053825;28;20231;-72
2022/01/17 04:03:16;;;;;;;6.10;5.53;;;4.90;99.90;;;;;;5071396;28;20229;-72
2022/01/17 04:05:42;;;;;;;8.77;7.10;;;5.00;99.90;;;;;;5071958;28;20586;-72
2022/01/17 04:08:08;;;;;;;14.83;6.50;;;4.90;99.90;;;;;;5051087;28;20232;-72
2022/01/17 04:10:34;;;;;;;6.17;5.77;;;4.90;99.90;;;;;;5051144;28;20235;-72
2022/01/17 04:13:03;;;;;;;5.73;4.83;;;4.90;99.90;;;;;;5066737;28;20238;-72
2022/01/17 04:15:29;;;;;;;8.73;5.20;;;4.90;99.90;;;;;;5051845;28;20192;-73
2022/01/17 04:17:56;;;;;;;3.53;3.33;;;4.90;99.90;;;;;;5069657;28;20294;-73
2022/01/17 04:20:27;;;;;;;4.00;3.70;;;4.80;99.90;;;;;;5074381;28;20567;-72
2022/01/17 04:22:54;;;;;;;10.80;8.60;;;4.80;99.90;;;;;;5073114;28;20231;-72
2022/01/17 04:25:25;;;;;;;4.10;3.80;;;4.80;99.90;;;;;;5051512;28;20272;-72
2022/01/17 04:27:52;;;;;;;6.70;6.10;;;4.80;99.90;;;;;;5058069;28;20283;-72
2022/01/17 04:30:19;;;;;;;10.73;6.60;;;4.80;99.90;;;;;;5075240;28;20192;-72
2022/01/17 04:32:46;;;;;;;2.30;2.17;;;4.80;99.90;;;;;;5053502;28;20544;-72
2022/01/17 04:35:14;;;;;;;4.77;4.47;;;4.80;99.90;;;;;;5071877;28;20651;-72
2022/01/17 04:37:40;;;;;;;7.10;6.40;;;4.80;99.90;;;;;;5071502;28;20212;-72
2022/01/17 04:40:07;;;;;;;6.97;5.70;;;4.70;99.90;;;;;;5073509;28;20204;-72
2022/01/17 04:42:33;;;;;;;4.90;3.40;;;4.70;99.90;;;;;;5071123;28;20655;-72
2022/01/17 04:45:08;;;;;;;1.97;1.90;;;4.70;99.90;;;;;;5049672;28;20181;-72
2022/01/17 04:47:36;;;;;;;6.27;5.80;;;4.70;99.90;;;;;;5068947;28;20257;-72
2022/01/17 04:50:04;;;;;;;7.33;5.93;;;4.70;99.90;;;;;;5071229;28;20180;-71
2022/01/17 04:52:30;;;;;;;3.97;3.67;;;4.70;99.90;;;;;;5050920;28;20189;-71
2022/01/17 04:55:00;;;;;;;3.93;3.13;;;4.80;99.90;;;;;;5064218;28;20187;-71
2022/01/17 04:57:26;;;;;;;4.77;4.40;;;4.80;99.90;;;;;;5053890;28;20292;-72
2022/01/17 04:59:51;;;;;;;8.43;5.13;;;4.80;99.90;;;;;;5067540;28;20283;-72
2022/01/17 05:02:17;;;;;;;6.17;4.53;;;4.80;99.90;;;;;;5074399;28;20253;-72
2022/01/17 05:04:45;;;;;;;3.33;3.03;;;4.80;99.90;;;;;;5074792;28;20181;-71
2022/01/17 05:07:14;;;;;;;7.87;4.07;;;4.80;99.90;;;;;;5075026;28;20215;-71
2022/01/17 05:09:41;;;;;;;9.07;7.07;;;4.80;99.90;;;;;;5053102;28;20188;-72
2022/01/17 05:12:08;;;;;;;5.97;5.47;;;4.80;99.90;;;;;;5061018;28;20192;-72
2022/01/17 05:14:34;;;;;;;4.43;4.13;;;4.90;99.90;;;;;;5053392;28;20196;-72
2022/01/17 05:17:06;;;;;;;4.83;2.93;;;4.80;99.90;;;;;;5074544;28;20204;-72
2022/01/17 05:19:48;;;;;;;5.20;4.77;;;4.80;99.90;;;;;;5074804;28;20651;-72
2022/01/17 05:22:18;;;;;;;3.97;3.47;;;4.80;99.90;;;;;;5074403;28;20208;-71
2022/01/17 05:24:45;;;;;;;4.07;3.23;;;4.90;99.90;;;;;;5074194;28;20271;-71
2022/01/17 05:27:11;;;;;;;10.77;7.07;;;4.80;99.90;;;;;;5074279;28;20204;-73
2022/01/17 05:29:36;;;;;;;19.23;3.40;;;4.80;99.90;;;;;;5056220;28;20199;-73
2022/01/17 05:32:03;;;;;;;6.17;5.77;;;4.80;99.90;;;;;;5073989;28;20192;-75
2022/01/17 05:34:29;;;;;;;7.53;6.80;;;4.90;99.90;;;;;;5074126;28;20719;-73
2022/01/17 05:36:54;;;;;;;4.37;2.77;;;4.90;99.90;;;;;;5073961;28;20212;-74
2022/01/17 05:39:20;;;;;;;7.10;6.50;;;4.90;99.90;;;;;;5054982;28;20184;-74
2022/01/17 05:41:45;;;;;;;2.80;2.60;;;4.90;99.90;;;;;;5052360;28;20731;-74
2022/01/17 05:44:11;;;;;;;6.57;5.33;;;4.90;99.90;;;;;;5069717;28;20180;-74
2022/01/17 05:46:37;;;;;;;5.07;4.63;;;4.90;99.90;;;;;;5074037;28;20710;-74
2022/01/17 05:49:02;;;;;;;1.60;1.50;;;4.90;99.90;;;;;;5073806;28;20188;-73
2022/01/17 05:51:28;;;;;;;5.63;5.23;;;4.80;99.90;;;;;;5073724;28;20199;-74
2022/01/17 05:53:53;;;;;;;4.03;2.50;;;4.80;99.90;;;;;;5052484;28;20243;-74
2022/01/17 05:56:19;;;;;;;13.53;4.10;;;4.80;99.90;;;;;;5055601;28;20716;-74
2022/01/17 05:58:45;;;;;;;13.53;4.10;;;4.80;99.90;;;;;;5073624;28;20583;-75
2022/01/17 06:01:12;;;;;;;2.10;1.50;;;4.80;99.90;;;;;;5052364;28;20221;-74
2022/01/17 06:03:37;;;;;;;1.03;1.03;;;4.80;99.90;;;;;;5070450;28;20176;-74
2022/01/17 06:06:03;;;;;;;1.50;1.50;;;4.90;99.90;;;;;;5073520;28;20188;-74
2022/01/17 06:08:29;;;;;;;10.13;3.10;;;5.00;99.90;;;;;;5073152;28;20545;-73
2022/01/17 06:10:55;;;;;;;18.23;2.60;;;5.00;99.90;;;;;;5073791;28;20176;-73
2022/01/17 06:13:21;;;;;;;2.30;2.20;;;5.10;99.90;;;;;;5051880;28;20670;-74
2022/01/17 06:15:46;;;;;;;9.13;4.00;;;5.10;99.90;;;;;;5052298;28;20204;-73
2022/01/17 06:18:12;;;;;;;6.10;5.33;;;5.00;99.90;;;;;;5069861;28;20263;-74
2022/01/17 06:20:37;;;;;;;3.53;3.37;;;5.10;99.90;;;;;;5073635;28;20226;-73
2022/01/17 06:23:03;;;;;;;3.13;2.90;;;5.10;99.90;;;;;;5054950;28;20674;-74
2022/01/17 06:25:29;;;;;;;2.67;2.47;;;5.10;99.90;;;;;;5073490;28;20774;-73
2022/01/17 06:27:54;;;;;;;9.77;5.10;;;5.10;99.90;;;;;;5073278;28;20193;-74
2022/01/17 06:30:20;;;;;;;3.20;3.00;;;5.10;99.90;;;;;;5073202;28;20674;-73
2022/01/17 06:32:45;;;;;;;3.97;3.17;;;5.10;99.90;;;;;;5072853;28;20184;-73
2022/01/17 06:35:11;;;;;;;5.70;2.80;;;5.10;99.90;;;;;;5073528;28;20184;-74
2022/01/17 06:37:39;;;;;;;2.77;2.30;;;5.10;99.90;;;;;;5072825;28;20215;-74
2022/01/17 06:40:07;;;;;;;2.13;2.03;;;5.20;99.90;;;;;;5052129;28;20568;-74
2022/01/17 06:42:34;;;;;;;5.93;5.40;;;5.20;99.90;;;;;;5051805;28;20188;-74
2022/01/17 06:45:04;;;;;;;6.07;4.90;;;5.20;99.90;;;;;;5052390;28;20177;-74
2022/01/17 06:47:31;;;;;;;4.37;4.07;;;5.20;99.90;;;;;;5051893;28;20284;-74
2022/01/17 06:49:56;;;;;;;4.07;3.60;;;5.20;99.90;;;;;;5064400;28;20536;-73
2022/01/17 06:52:23;;;;;;;5.20;4.80;;;5.20;99.90;;;;;;5053664;28;20191;-74
2022/01/17 06:54:50;;;;;;;5.87;5.10;;;5.20;99.90;;;;;;5063877;28;20203;-74
2022/01/17 06:57:16;;;;;;;6.17;5.67;;;5.20;99.90;;;;;;5072687;28;20192;-74
2022/01/17 06:59:41;;;;;;;3.53;3.13;;;5.20;99.90;;;;;;5051614;28;20201;-74
2022/01/17 07:02:08;;;;;;;1.43;1.43;;;5.20;99.90;;;;;;5070374;28;20184;-73
2022/01/17 07:04:34;;;;;;;5.30;3.47;;;5.20;99.90;;;;;;5073131;28;20188;-74
2022/01/17 07:07:00;;;;;;;8.80;3.80;;;5.20;99.90;;;;;;5050809;28;20204;-71
2022/01/17 07:09:25;;;;;;;1.67;1.57;;;5.20;99.90;;;;;;5070928;28;20191;-75
2022/01/17 07:11:51;;;;;;;8.10;6.87;;;5.10;99.90;;;;;;5053994;28;20200;-74
2022/01/17 07:14:17;;;;;;;4.70;3.27;;;5.10;99.90;;;;;;5053654;28;20718;-74
2022/01/17 07:16:43;;;;;;;3.73;3.53;;;5.10;99.90;;;;;;5071790;28;20180;-74
2022/01/17 07:19:09;;;;;;;1.93;1.87;;;5.20;99.90;;;;;;5059018;22;20233;-76
2022/01/17 07:21:37;;;;;;;3.77;3.40;;;5.30;99.90;;;;;;5029609;28;20198;-76
2022/01/17 07:24:03;;;;;;;1.30;1.07;;;5.30;99.90;;;;;;5031062;28;20265;-75
2022/01/17 07:26:29;;;;;;;2.33;2.23;;;5.30;99.90;;;;;;5031647;28;20170;-74
2022/01/17 07:28:54;;;;;;;5.43;3.80;;;5.30;99.90;;;;;;5031490;28;20198;-73
2022/01/17 07:31:20;;;;;;;3.83;3.60;;;5.30;99.90;;;;;;5031304;28;20181;-72
2022/01/17 07:33:46;;;;;;;13.37;3.93;;;5.30;99.90;;;;;;5031125;28;20714;-71
2022/01/17 07:36:19;;;;;;;4.50;4.13;;;5.30;99.90;;;;;;5031431;28;20178;-74
2022/01/17 07:38:45;;;;;;;3.83;3.47;;;5.30;99.90;;;;;;5030883;28;20201;-74
2022/01/17 07:41:11;;;;;;;2.97;2.83;;;5.30;99.90;;;;;;5031748;28;20680;-73
2022/01/17 07:43:38;;;;;;;3.97;2.87;;;5.30;99.90;;;;;;5031306;28;20189;-74
2022/01/17 07:46:06;;;;;;;5.53;3.97;;;5.30;99.90;;;;;;5031346;28;20176;-72
2022/01/17 07:51:20;;;;;;;5.20;3.27;;;5.20;99.90;;;;;;5020829;28;20683;-71
2022/01/17 07:53:46;;;;;;;4.17;3.83;;;5.20;99.90;;;;;;5031414;28;20182;-74
2022/01/17 07:56:11;;;;;;;16.93;6.50;;;5.20;99.90;;;;;;5031563;28;20182;-75
2022/01/17 07:58:38;;;;;;;4.30;4.00;;;5.20;99.90;;;;;;5013724;28;20735;-76
2022/01/17 08:01:04;;;;;;;4.70;3.40;;;5.20;99.90;;;;;;5033039;28;20216;-75
2022/01/17 08:03:30;;;;;;;3.03;2.93;;;5.20;99.90;;;;;;5031753;28;20178;-76
2022/01/17 08:05:55;;;;;;;3.50;3.23;;;5.20;99.90;;;;;;5031612;28;20217;-76
2022/01/17 08:08:21;;;;;;;4.37;3.60;;;5.20;99.90;;;;;;5030727;28;20201;-77
2022/01/17 08:10:47;;;;;;;4.27;4.03;;;5.20;99.90;;;;;;5031599;28;20629;-77
2022/01/17 08:13:12;;;;;;;4.77;4.33;;;5.20;99.90;;;;;;5030623;28;20657;-76
2022/01/17 08:15:38;;;;;;;9.90;5.77;;;5.20;99.90;;;;;;5031583;28;20181;-76
2022/01/17 08:18:04;;;;;;;5.17;4.00;;;5.20;99.90;;;;;;5031258;28;20788;-74
2022/01/17 08:20:30;;;;;;;9.30;4.27;;;5.30;99.90;;;;;;5013610;28;20619;-75
2022/01/17 08:22:57;;;;;;;10.37;7.27;;;5.30;99.90;;;;;;5012684;28;20216;-75
2022/01/17 08:25:23;;;;;;;3.93;3.73;;;5.40;99.90;;;;;;5031230;28;20190;-76
2022/01/17 08:27:48;;;;;;;5.87;5.43;;;5.40;99.90;;;;;;5031137;28;20688;-75
2022/01/17 08:30:14;;;;;;;3.47;3.13;;;5.50;99.90;;;;;;5034861;28;20193;-74
2022/01/17 08:32:40;;;;;;;3.37;3.10;;;5.50;99.90;;;;;;5035067;28;20181;-75
2022/01/17 08:35:06;;;;;;;6.97;4.40;;;5.50;99.90;;;;;;5016919;28;20189;-75
2022/01/17 08:37:32;;;;;;;6.87;4.07;;;5.60;99.90;;;;;;5034517;28;20655;-75
2022/01/17 08:40:04;;;;;;;3.77;3.47;;;5.60;99.90;;;;;;5017223;28;20292;-74
2022/01/17 08:42:30;;;;;;;8.30;4.00;;;5.60;99.90;;;;;;5034952;28;20189;-75
2022/01/17 08:44:56;;;;;;;5.00;3.20;;;5.60;99.90;;;;;;5016650;28;20185;-75
2022/01/17 08:47:23;;;;;;;7.33;5.27;;;5.60;99.90;;;;;;5035030;28;20174;-75
2022/01/17 08:49:48;;;;;;;9.60;7.17;;;5.60;99.90;;;;;;5034708;28;20611;-75
2022/01/17 08:52:15;;;;;;;1.40;1.33;;;5.60;99.90;;;;;;5034714;28;20265;-75
2022/01/17 08:54:42;;;;;;;5.47;5.00;;;5.60;99.90;;;;;;5016935;28;20191;-75
2022/01/17 08:57:07;;;;;;;6.37;5.73;;;5.60;99.90;;;;;;5034782;28;20182;-75
2022/01/17 08:59:33;;;;;;;4.33;4.03;;;5.50;99.90;;;;;;5034670;28;20263;-75
2022/01/17 09:01:59;;;;;;;6.20;4.67;;;5.50;99.90;;;;;;5034601;28;20181;-75
2022/01/17 09:04:25;;;;;;;5.20;4.90;;;5.50;99.90;;;;;;5034875;28;20193;-75
2022/01/17 09:06:50;;;;;;;4.13;3.83;;;5.50;99.90;;;;;;5034789;28;20173;-75
2022/01/17 09:09:16;;;;;;;6.17;5.57;;;5.40;99.90;;;;;;5034546;28;20205;-75
2022/01/17 09:11:43;;;;;;;10.67;6.10;;;5.40;99.90;;;;;;5034407;28;20212;-75
2022/01/17 09:14:09;;;;;;;3.03;2.83;;;5.40;99.90;;;;;;5034663;28;20186;-75
2022/01/17 09:16:34;;;;;;;7.63;6.90;;;5.50;99.90;;;;;;5016627;28;20209;-75
2022/01/17 09:19:01;;;;;;;4.73;4.43;;;5.50;99.90;;;;;;5034355;28;20217;-75
2022/01/17 09:21:27;;;;;;;7.30;5.97;;;5.50;99.90;;;;;;5034150;28;20351;-75
2022/01/17 09:23:57;;;;;;;3.93;2.67;;;5.60;99.90;;;;;;5034230;28;20705;-74
2022/01/17 09:26:25;;;;;;;24.80;6.03;;;5.60;99.90;;;;;;5034323;28;20656;-75
2022/01/17 09:28:51;;;;;;;5.73;4.83;;;5.70;99.90;;;;;;5034298;28;20752;-75
2022/01/17 09:31:17;;;;;;;6.70;3.70;;;5.70;99.90;;;;;;5034508;28;20257;-75
2022/01/17 09:33:42;;;;;;;3.70;3.40;;;5.80;99.90;;;;;;5034280;28;20257;-75
2022/01/17 09:36:08;;;;;;;5.53;4.77;;;5.80;99.90;;;;;;5016556;28;20660;-75
2022/01/17 09:38:34;;;;;;;9.73;4.63;;;5.80;99.90;;;;;;5034042;28;20213;-75
2022/01/17 09:41:00;;;;;;;9.40;5.80;;;5.80;99.90;;;;;;5033256;28;20209;-75
2022/01/17 09:43:26;;;;;;;6.20;4.90;;;5.90;99.90;;;;;;5033745;28;20224;-75
2022/01/17 09:45:52;;;;;;;8.07;6.20;;;5.90;99.90;;;;;;5034034;28;20174;-75
2022/01/17 09:48:21;;;;;;;18.03;3.83;;;6.10;99.90;;;;;;5033726;28;20220;-74
2022/01/17 09:51:01;;;;;;;5.17;4.77;;;6.30;99.90;;;;;;5033866;28;20174;-75
2022/01/17 09:53:28;;;;;;;4.50;4.07;;;6.50;99.90;;;;;;5033501;28;20213;-75
2022/01/17 09:55:58;;;;;;;14.80;6.17;;;6.40;99.90;;;;;;5015989;28;20193;-75
2022/01/17 09:58:25;;;;;;;18.30;5.87;;;6.40;99.90;;;;;;5033773;28;20577;-76
2022/01/17 10:00:50;;;;;;;5.87;3.80;;;6.40;99.90;;;;;;5033629;28;20288;-75
2022/01/17 10:03:17;;;;;;;7.93;7.33;;;6.30;99.90;;;;;;5033529;28;20725;-75
2022/01/17 10:05:43;;;;;;;4.87;4.40;;;6.30;99.90;;;;;;5016200;28;20271;-75
2022/01/17 10:08:16;;;;;;;3.23;2.87;;;6.40;99.90;;;;;;5033540;28;20738;-75
2022/01/17 10:11:04;;;;;;;7.90;6.17;;;6.40;99.90;;;;;;5033587;28;20193;-75
2022/01/17 10:13:37;;;;;;;3.87;3.47;;;6.40;99.90;;;;;;5033161;28;20174;-75
2022/01/17 10:16:11;;;;;;;3.93;3.30;;;6.40;99.90;;;;;;5033447;28;20190;-75
2022/01/17 10:18:51;;;;;;;6.27;5.77;;;6.40;99.90;;;;;;5035356;28;20220;-75
2022/01/17 10:21:34;;;;;;;25.37;5.43;;;6.40;99.90;;;;;;5015406;28;20305;-73
2022/01/17 10:27:17;;;;;;;7.07;5.60;;;6.30;99.90;;;;;;5033775;28;20181;-75
2022/01/17 10:30:17;;;;;;;4.57;3.63;;;6.40;99.90;;;;;;5015513;28;20680;-75
2022/01/17 10:35:36;;;;;;;5.63;4.00;;;6.60;99.90;;;;;;5004587;28;20220;-75
2022/01/17 10:38:14;;;;;;;8.10;5.63;;;6.60;99.90;;;;;;5033126;28;20304;-75
2022/01/17 10:40:56;;;;;;;7.77;5.27;;;6.60;99.90;;;;;;5014878;28;20205;-75
2022/01/17 10:43:38;;;;;;;9.43;6.27;;;6.60;99.90;;;;;;5032792;28;20186;-75
2022/01/17 10:46:13;;;;;;;5.73;3.30;;;6.80;99.90;;;;;;5014481;28;20177;-75
2022/01/17 10:48:46;;;;;;;3.87;3.23;;;7.30;99.90;;;;;;5031872;28;20710;-75
2022/01/17 10:51:14;;;;;;;3.40;3.10;;;7.40;99.90;;;;;;5032734;28;20174;-75
2022/01/17 10:53:40;;;;;;;13.53;4.33;;;7.30;99.90;;;;;;5013314;28;20185;-75
2022/01/17 10:56:09;;;;;;;5.90;3.70;;;7.20;99.90;;;;;;5032522;28;20174;-75
2022/01/17 10:58:38;;;;;;;5.47;4.77;;;7.10;99.90;;;;;;5032286;28;20201;-75
2022/01/17 11:01:11;;;;;;;5.13;3.57;;;7.10;99.90;;;;;;5032203;28;20255;-75
2022/01/17 11:03:38;;;;;;;10.83;6.27;;;7.10;99.90;;;;;;5032239;28;20184;-76
2022/01/17 11:06:10;;;;;;;10.33;6.80;;;7.10;99.90;;;;;;5032548;28;20596;-75
2022/01/17 11:08:36;;;;;;;12.50;3.00;;;6.90;99.90;;;;;;5032789;28;20248;-75
2022/01/17 11:11:05;;;;;;;7.53;5.30;;;6.80;99.90;;;;;;5032774;28;20188;-75
2022/01/17 11:13:38;;;;;;;7.13;6.40;;;6.70;99.90;;;;;;5031896;28;20684;-75
2022/01/17 11:16:08;;;;;;;8.90;4.80;;;6.60;99.90;;;;;;5032238;28;20681;-75
2022/01/17 11:18:36;;;;;;;5.20;4.60;;;6.50;99.90;;;;;;5032025;28;20217;-75
2022/01/17 11:21:11;;;;;;;3.83;3.17;;;6.50;99.90;;;;;;5031986;28;20213;-75
2022/01/17 11:23:38;;;;;;;3.97;3.63;;;6.50;99.90;;;;;;5013974;28;20464;-75
2022/01/17 11:26:05;;;;;;;8.33;3.77;;;6.50;99.90;;;;;;5031983;28;20205;-74
2022/01/17 11:28:33;;;;;;;6.10;5.57;;;6.40;99.90;;;;;;5031916;28;20292;-75
2022/01/17 11:31:01;;;;;;;6.67;4.83;;;6.40;99.90;;;;;;5032085;28;20224;-75
2022/01/17 11:33:28;;;;;;;6.43;4.77;;;6.40;99.90;;;;;;5031578;28;20182;-75
2022/01/17 11:35:54;;;;;;;2.67;2.53;;;6.40;99.90;;;;;;5031380;28;20691;-75
2022/01/17 11:38:29;;;;;;;2.77;2.67;;;6.40;99.90;;;;;;5031789;28;20205;-75
2022/01/17 11:40:56;;;;;;;4.30;4.03;;;6.50;99.90;;;;;;5013959;28;20216;-75
2022/01/17 11:43:34;;;;;;;2.50;2.13;;;6.50;99.90;;;;;;5013261;28;20174;-74
2022/01/17 11:46:17;;;;;;;8.00;2.93;;;6.50;99.90;;;;;;5013967;28;20316;-75
2022/01/17 11:48:52;;;;;;;6.13;2.37;;;6.50;99.90;;;;;;5031420;28;20871;-74
2022/01/17 11:51:18;;;;;;;9.13;5.73;;;6.50;99.90;;;;;;5032057;28;20181;-73
2022/01/17 11:53:50;;;;;;;2.07;1.97;;;6.50;99.90;;;;;;5047102;28;20703;-75
2022/01/17 11:56:35;;;;;;;5.63;5.10;;;6.40;99.90;;;;;;5013850;28;20220;-75
2022/01/17 11:59:01;;;;;;;6.57;5.40;;;6.40;99.90;;;;;;5031169;28;20228;-75
2022/01/17 12:01:26;;;;;;;8.73;3.47;;;6.40;99.90;;;;;;5013359;28;20205;-74
2022/01/17 12:03:56;;;;;;;5.00;4.30;;;6.40;99.90;;;;;;5031027;28;20537;-75
2022/01/17 12:06:28;;;;;;;2.60;2.47;;;6.40;99.90;;;;;;5031587;28;20264;-75
2022/01/17 12:09:21;;;;;;;9.33;7.37;;;6.40;99.90;;;;;;5031377;28;20189;-75
2022/01/17 12:11:55;;;;;;;4.20;4.00;;;6.40;99.90;;;;;;5030705;28;20178;-75
2022/01/17 12:14:27;;;;;;;4.37;3.00;;;6.40;99.90;;;;;;5031077;28;20591;-74
2022/01/17 12:16:54;;;;;;;2.90;2.63;;;6.40;99.90;;;;;;5031531;28;20229;-74
2022/01/17 12:19:19;;;;;;;6.93;5.50;;;6.40;99.90;;;;;;5031321;28;20225;-74
2022/01/17 12:21:57;;;;;;;5.07;2.60;;;6.30;99.90;;;;;;5030949;28;20206;-75
2022/01/17 12:24:25;;;;;;;4.40;4.00;;;6.30;99.90;;;;;;5031281;28;20170;-75
2022/01/17 12:27:02;;;;;;;1.70;1.47;;;6.40;99.90;;;;;;5031377;28;20188;-75
2022/01/17 12:29:50;;;;;;;5.23;4.87;;;6.40;99.90;;;;;;5031291;28;20604;-75
2022/01/17 12:32:48;;;;;;;5.77;5.13;;;6.40;99.90;;;;;;5031202;28;20575;-75
2022/01/17 12:35:23;;;;;;;19.70;2.67;;;6.40;99.90;;;;;;5031055;28;20256;-75
2022/01/17 12:37:57;;;;;;;6.07;5.57;;;6.40;99.90;;;;;;5031208;28;20212;-74
2022/01/17 12:40:34;;;;;;;7.60;4.33;;;6.40;99.90;;;;;;5031161;28;20228;-74
2022/01/17 12:43:09;;;;;;;6.23;5.30;;;6.40;99.90;;;;;;5030750;28;20184;-75
2022/01/17 12:45:47;;;;;;;4.70;3.97;;;6.30;99.90;;;;;;5030902;28;20177;-75
2022/01/17 12:48:14;;;;;;;7.87;6.90;;;6.30;99.90;;;;;;5030967;28;20553;-75
2022/01/17 12:50:41;;;;;;;5.90;3.07;;;6.30;99.90;;;;;;5026284;28;20182;-75
2022/01/17 12:53:12;;;;;;;6.47;5.93;;;6.30;99.90;;;;;;5012925;28;20182;-74
2022/01/17 12:55:43;;;;;;;7.93;5.07;;;6.30;99.90;;;;;;5030896;28;20732;-75
2022/01/17 12:58:27;;;;;;;4.87;3.57;;;6.30;99.90;;;;;;5022893;28;20206;-74
2022/01/17 13:01:04;;;;;;;6.87;6.23;;;6.40;99.90;;;;;;5030914;28;20225;-75
2022/01/17 13:03:35;;;;;;;10.20;6.10;;;6.30;99.90;;;;;;5030516;28;20184;-75
2022/01/17 13:06:04;;;;;;;3.67;3.47;;;6.30;99.90;;;;;;5030873;28;20719;-75
2022/01/17 13:08:29;;;;;;;4.80;3.07;;;6.30;99.90;;;;;;5012898;28;20194;-75
2022/01/17 13:10:55;;;;;;;5.80;5.40;;;6.30;99.90;;;;;;5030599;28;20204;-75
2022/01/17 13:13:22;;;;;;;4.77;4.30;;;6.30;99.90;;;;;;5030377;28;20220;-75
2022/01/17 13:15:58;;;;;;;3.30;1.60;;;6.30;99.90;;;;;;5031543;28;20186;-75
2022/01/17 13:18:26;;;;;;;11.90;5.13;;;6.30;99.90;;;;;;5047607;22;20221;-75